createdAt,value
2018-07-19T00:00:17.688Z,21.93
2018-07-19T00:00:58.263Z,21.92
2018-07-19T00:01:38.842Z,21.91
2018-07-19T00:02:19.396Z,21.89
2018-07-19T00:02:59.961Z,21.93
2018-07-19T00:03:40.528Z,21.91
2018-07-19T00:04:21.093Z,21.79
2018-07-19T00:05:01.669Z,21.8
2018-07-19T00:05:42.228Z,21.82
2018-07-19T00:06:22.794Z,21.83
2018-07-19T00:07:03.356Z,21.89
2018-07-19T00:07:43.930Z,21.85
2018-07-19T00:08:24.495Z,21.88
2018-07-19T00:09:05.058Z,21.83
2018-07-19T00:09:45.623Z,21.82
2018-07-19T00:10:26.218Z,21.89
2018-07-19T00:11:06.785Z,21.79
2018-07-19T00:11:47.351Z,21.91
2018-07-19T00:12:27.922Z,21.83
2018-07-19T00:13:08.481Z,21.82
2018-07-19T00:13:49.047Z,21.83
2018-07-19T00:14:29.615Z,21.75
2018-07-19T00:15:10.196Z,21.72
2018-07-19T00:15:50.764Z,21.82
2018-07-19T00:16:31.338Z,21.6
2018-07-19T00:17:11.895Z,21.6
2018-07-19T00:17:52.500Z,21.69
2018-07-19T00:18:33.070Z,21.66
2018-07-19T00:19:13.643Z,21.61
2018-07-19T00:19:54.214Z,21.64
2018-07-19T00:20:34.786Z,21.73
2018-07-19T00:21:15.356Z,21.69
2018-07-19T00:21:55.923Z,21.64
2018-07-19T00:22:36.495Z,21.62
2018-07-19T00:23:17.072Z,21.61
2018-07-19T00:23:57.641Z,21.67
2018-07-19T00:24:38.215Z,21.73
2018-07-19T00:25:18.782Z,21.72
2018-07-19T00:25:59.358Z,21.7
2018-07-19T00:26:39.917Z,21.72
2018-07-19T00:27:20.499Z,21.62
2018-07-19T00:28:01.059Z,21.6
2018-07-19T00:28:41.627Z,21.72
2018-07-19T00:29:22.203Z,21.67
2018-07-19T00:30:02.785Z,21.61
2018-07-19T00:30:43.351Z,21.64
2018-07-19T00:31:23.927Z,21.69
2018-07-19T00:32:04.488Z,21.64
2018-07-19T00:32:45.057Z,21.57
2018-07-19T00:33:25.625Z,21.57
2018-07-19T00:34:06.218Z,21.54
2018-07-19T00:34:46.775Z,21.58
2018-07-19T00:35:27.349Z,21.66
2018-07-19T00:36:07.917Z,21.66
2018-07-19T00:36:48.490Z,21.62
2018-07-19T00:37:29.047Z,21.52
2018-07-19T00:38:09.625Z,21.6
2018-07-19T00:38:50.190Z,21.58
2018-07-19T00:39:30.756Z,21.57
2018-07-19T00:40:11.330Z,21.52
2018-07-19T00:40:51.902Z,21.51
2018-07-19T00:41:32.465Z,21.52
2018-07-19T00:42:13.037Z,21.54
2018-07-19T00:42:53.612Z,21.46
2018-07-19T00:43:34.184Z,21.55
2018-07-19T00:44:14.757Z,21.48
2018-07-19T00:44:55.338Z,21.48
2018-07-19T00:45:35.913Z,21.45
2018-07-19T00:46:16.511Z,21.46
2018-07-19T00:46:57.069Z,21.43
2018-07-19T00:47:37.641Z,21.45
2018-07-19T00:48:18.207Z,21.45
2018-07-19T00:48:58.761Z,21.54
2018-07-19T00:49:39.339Z,21.48
2018-07-19T00:50:19.917Z,21.52
2018-07-19T00:51:00.474Z,21.46
2018-07-19T00:51:41.035Z,21.37
2018-07-19T00:52:21.614Z,21.39
2018-07-19T00:53:02.192Z,21.4
2018-07-19T00:53:42.764Z,21.43
2018-07-19T00:54:23.340Z,21.4
2018-07-19T00:55:03.909Z,21.39
2018-07-19T00:55:44.477Z,21.37
2018-07-19T00:56:25.049Z,21.36
2018-07-19T00:57:05.622Z,21.25
2018-07-19T00:57:46.208Z,21.39
2018-07-19T00:58:26.769Z,21.3
2018-07-19T00:59:07.338Z,21.22
2018-07-19T00:59:47.917Z,21.22
2018-07-19T01:00:28.488Z,21.2
2018-07-19T01:01:09.059Z,21.2
2018-07-19T01:01:49.625Z,21.2
2018-07-19T01:02:30.201Z,21.22
2018-07-19T01:03:10.761Z,21.22
2018-07-19T01:03:51.337Z,21.17
2018-07-19T01:04:31.898Z,21.22
2018-07-19T01:05:12.483Z,21.18
2018-07-19T01:05:53.049Z,21.2
2018-07-19T01:06:33.624Z,21.18
2018-07-19T01:07:14.193Z,21.22
2018-07-19T01:07:54.763Z,21.24
2018-07-19T01:08:35.352Z,21.21
2018-07-19T01:09:15.926Z,21.09
2018-07-19T01:09:56.513Z,21.06
2018-07-19T01:10:37.084Z,21.12
2018-07-19T01:11:17.657Z,21.17
2018-07-19T01:11:58.228Z,21.12
2018-07-19T01:12:38.799Z,21.14
2018-07-19T01:13:19.362Z,21.03
2018-07-19T01:13:59.941Z,21.14
2018-07-19T01:14:40.512Z,21.07
2018-07-19T01:15:21.057Z,21.11
2018-07-19T01:16:01.647Z,21.17
2018-07-19T01:16:42.212Z,21.11
2018-07-19T01:17:22.786Z,21.14
2018-07-19T01:18:03.358Z,21.05
2018-07-19T01:18:43.923Z,21.09
2018-07-19T01:19:24.492Z,21.11
2018-07-19T01:20:05.066Z,21.02
2018-07-19T01:20:45.641Z,21.07
2018-07-19T01:21:26.213Z,21.11
2018-07-19T01:22:06.785Z,21.02
2018-07-19T01:22:47.347Z,21.09
2018-07-19T01:23:27.936Z,21.09
2018-07-19T01:24:08.502Z,21.09
2018-07-19T01:24:49.077Z,21.03
2018-07-19T01:25:29.648Z,21.03
2018-07-19T01:26:10.214Z,21.03
2018-07-19T01:26:50.790Z,20.99
2018-07-19T01:27:31.358Z,21.09
2018-07-19T01:28:11.930Z,21.06
2018-07-19T01:28:52.505Z,21.09
2018-07-19T01:29:33.079Z,21.05
2018-07-19T01:30:13.653Z,21.05
2018-07-19T01:30:54.224Z,21.11
2018-07-19T01:31:34.794Z,21.02
2018-07-19T01:32:15.361Z,21.02
2018-07-19T01:32:55.928Z,21.05
2018-07-19T01:33:36.501Z,21.12
2018-07-19T01:34:17.079Z,21.09
2018-07-19T01:34:57.648Z,21.07
2018-07-19T01:35:38.222Z,21.15
2018-07-19T01:36:18.788Z,21.06
2018-07-19T01:36:59.355Z,21.03
2018-07-19T01:37:39.922Z,21
2018-07-19T01:38:20.483Z,21.09
2018-07-19T01:39:01.061Z,21.02
2018-07-19T01:39:41.624Z,21.06
2018-07-19T01:40:22.179Z,21
2018-07-19T01:41:02.750Z,21
2018-07-19T01:41:43.314Z,21.03
2018-07-19T01:42:23.877Z,20.88
2018-07-19T01:43:04.430Z,20.93
2018-07-19T01:43:45.002Z,21.05
2018-07-19T01:44:25.578Z,20.96
2018-07-19T01:45:06.147Z,20.92
2018-07-19T01:45:46.725Z,20.87
2018-07-19T01:46:27.289Z,21
2018-07-19T01:47:07.866Z,20.82
2018-07-19T01:47:48.432Z,20.92
2018-07-19T01:48:29.002Z,20.81
2018-07-19T01:49:09.573Z,20.85
2018-07-19T01:49:50.151Z,20.84
2018-07-19T01:50:30.714Z,20.84
2018-07-19T01:51:11.285Z,20.81
2018-07-19T01:51:51.845Z,20.81
2018-07-19T01:52:32.415Z,20.74
2018-07-19T01:53:12.979Z,20.81
2018-07-19T01:53:53.544Z,20.88
2018-07-19T01:54:34.098Z,20.81
2018-07-19T01:55:14.674Z,20.8
2018-07-19T01:55:55.246Z,20.75
2018-07-19T01:56:35.825Z,20.84
2018-07-19T01:57:16.378Z,20.87
2018-07-19T01:57:56.954Z,20.75
2018-07-19T01:58:37.524Z,20.82
2018-07-19T01:59:18.097Z,20.72
2018-07-19T01:59:58.771Z,20.78
2018-07-19T02:00:39.249Z,20.8
2018-07-19T02:01:19.814Z,20.78
2018-07-19T02:02:00.383Z,20.82
2018-07-19T02:02:40.958Z,20.75
2018-07-19T02:03:21.532Z,20.74
2018-07-19T02:04:02.095Z,20.7
2018-07-19T02:04:42.672Z,20.8
2018-07-19T02:05:23.243Z,20.81
2018-07-19T02:06:03.811Z,20.78
2018-07-19T02:06:44.383Z,20.81
2018-07-19T02:07:24.948Z,20.8
2018-07-19T02:08:05.520Z,20.74
2018-07-19T02:08:46.091Z,20.77
2018-07-19T02:09:26.670Z,20.75
2018-07-19T02:10:07.235Z,20.74
2018-07-19T02:10:47.810Z,20.75
2018-07-19T02:11:28.385Z,20.72
2018-07-19T02:12:08.959Z,20.78
2018-07-19T02:12:49.527Z,20.65
2018-07-19T02:13:30.097Z,20.63
2018-07-19T02:14:10.672Z,20.63
2018-07-19T02:14:51.244Z,20.56
2018-07-19T02:15:31.820Z,20.7
2018-07-19T02:16:12.404Z,20.69
2018-07-19T02:16:52.975Z,20.74
2018-07-19T02:17:33.543Z,20.69
2018-07-19T02:18:14.126Z,20.67
2018-07-19T02:18:54.693Z,20.67
2018-07-19T02:19:35.266Z,20.7
2018-07-19T02:20:15.843Z,20.7
2018-07-19T02:20:56.419Z,20.67
2018-07-19T02:21:36.990Z,20.72
2018-07-19T02:22:17.561Z,20.59
2018-07-19T02:22:58.134Z,20.63
2018-07-19T02:23:38.699Z,20.58
2018-07-19T02:24:19.267Z,20.6
2018-07-19T02:24:59.842Z,20.65
2018-07-19T02:25:40.413Z,20.62
2018-07-19T02:26:20.980Z,20.63
2018-07-19T02:27:01.551Z,20.6
2018-07-19T02:27:42.121Z,20.62
2018-07-19T02:28:22.691Z,20.62
2018-07-19T02:29:03.268Z,20.63
2018-07-19T02:29:43.838Z,20.59
2018-07-19T02:30:24.410Z,20.63
2018-07-19T02:31:04.990Z,20.63
2018-07-19T02:31:45.563Z,20.59
2018-07-19T02:32:26.133Z,20.59
2018-07-19T02:33:06.704Z,20.58
2018-07-19T02:33:47.274Z,20.56
2018-07-19T02:34:27.852Z,20.59
2018-07-19T02:35:08.422Z,20.55
2018-07-19T02:35:48.996Z,20.47
2018-07-19T02:36:29.569Z,20.47
2018-07-19T02:37:10.144Z,20.56
2018-07-19T02:37:50.711Z,20.48
2018-07-19T02:38:31.284Z,20.56
2018-07-19T02:39:11.851Z,20.43
2018-07-19T02:39:52.427Z,20.51
2018-07-19T02:40:33.002Z,20.51
2018-07-19T02:41:13.576Z,20.52
2018-07-19T02:41:54.147Z,20.51
2018-07-19T02:42:34.723Z,20.36
2018-07-19T02:43:15.294Z,20.5
2018-07-19T02:43:55.920Z,20.51
2018-07-19T02:44:36.437Z,20.41
2018-07-19T02:45:17.010Z,20.5
2018-07-19T02:45:57.583Z,20.5
2018-07-19T02:46:38.151Z,20.4
2018-07-19T02:47:18.735Z,20.37
2018-07-19T02:47:59.306Z,20.43
2018-07-19T02:48:39.884Z,20.25
2018-07-19T02:49:20.439Z,20.28
2018-07-19T02:50:01.015Z,20.29
2018-07-19T02:50:41.589Z,20.31
2018-07-19T02:51:22.154Z,20.28
2018-07-19T02:52:02.724Z,20.32
2018-07-19T02:52:43.288Z,20.28
2018-07-19T02:53:23.865Z,20.37
2018-07-19T02:54:04.436Z,20.26
2018-07-19T02:54:45.012Z,20.37
2018-07-19T02:55:25.581Z,20.29
2018-07-19T02:56:06.150Z,20.31
2018-07-19T02:56:46.720Z,20.28
2018-07-19T02:57:27.294Z,20.25
2018-07-19T02:58:07.878Z,20.25
2018-07-19T02:58:48.438Z,20.18
2018-07-19T02:59:29.012Z,20.11
2018-07-19T03:00:09.587Z,20.29
2018-07-19T03:00:50.162Z,20.24
2018-07-19T03:01:30.729Z,20.25
2018-07-19T03:02:11.349Z,20.16
2018-07-19T03:02:51.878Z,20.13
2018-07-19T03:03:32.451Z,20.14
2018-07-19T03:04:13.021Z,20.11
2018-07-19T03:04:53.581Z,20.11
2018-07-19T03:05:34.152Z,20.16
2018-07-19T03:06:14.716Z,20.16
2018-07-19T03:06:55.280Z,20.13
2018-07-19T03:07:35.884Z,20.25
2018-07-19T03:08:16.416Z,20.24
2018-07-19T03:08:56.979Z,20.29
2018-07-19T03:09:37.550Z,20.18
2018-07-19T03:10:18.123Z,20.31
2018-07-19T03:10:58.696Z,20.32
2018-07-19T03:11:39.264Z,20.18
2018-07-19T03:12:19.838Z,20.28
2018-07-19T03:13:00.405Z,20.26
2018-07-19T03:13:40.979Z,20.19
2018-07-19T03:14:21.557Z,20.24
2018-07-19T03:15:02.125Z,20.22
2018-07-19T03:15:42.699Z,20.21
2018-07-19T03:16:23.267Z,20.16
2018-07-19T03:17:03.837Z,20.16
2018-07-19T03:17:44.414Z,20.19
2018-07-19T03:18:24.980Z,20.24
2018-07-19T03:19:05.539Z,20.22
2018-07-19T03:19:46.115Z,20.34
2018-07-19T03:20:26.683Z,20.14
2018-07-19T03:21:07.263Z,20.22
2018-07-19T03:21:47.826Z,20.28
2018-07-19T03:22:28.405Z,20.22
2018-07-19T03:23:08.973Z,20.13
2018-07-19T03:23:49.546Z,20.21
2018-07-19T03:24:30.120Z,20.1
2018-07-19T03:25:10.691Z,20.25
2018-07-19T03:25:51.255Z,20.22
2018-07-19T03:26:31.826Z,20.18
2018-07-19T03:27:12.383Z,20.16
2018-07-19T03:27:52.965Z,20.11
2018-07-19T03:28:33.534Z,20.16
2018-07-19T03:29:14.106Z,20.21
2018-07-19T03:29:54.674Z,20.11
2018-07-19T03:30:35.250Z,20.11
2018-07-19T03:31:15.821Z,20.18
2018-07-19T03:31:56.395Z,20.14
2018-07-19T03:32:36.962Z,20.19
2018-07-19T03:33:17.535Z,20.13
2018-07-19T03:33:58.094Z,20.14
2018-07-19T03:34:38.655Z,20.14
2018-07-19T03:35:19.239Z,20.09
2018-07-19T03:35:59.816Z,20.1
2018-07-19T03:36:40.385Z,20.1
2018-07-19T03:37:20.960Z,20.07
2018-07-19T03:38:01.531Z,20.06
2018-07-19T03:38:42.086Z,20.03
2018-07-19T03:39:22.665Z,20.03
2018-07-19T03:40:03.243Z,20.07
2018-07-19T03:40:43.807Z,20
2018-07-19T03:41:24.377Z,20.03
2018-07-19T03:42:04.945Z,20.06
2018-07-19T03:42:45.517Z,20.03
2018-07-19T03:43:26.091Z,20.02
2018-07-19T03:44:06.656Z,19.96
2018-07-19T03:44:47.232Z,19.96
2018-07-19T03:45:27.804Z,20.02
2018-07-19T03:46:08.374Z,20
2018-07-19T03:46:48.935Z,20.1
2018-07-19T03:47:29.498Z,20
2018-07-19T03:48:10.064Z,20.07
2018-07-19T03:48:50.641Z,20.04
2018-07-19T03:49:31.213Z,19.95
2018-07-19T03:50:11.787Z,19.99
2018-07-19T03:50:52.357Z,20
2018-07-19T03:51:32.931Z,19.94
2018-07-19T03:52:13.508Z,19.94
2018-07-19T03:52:54.075Z,20
2018-07-19T03:53:34.645Z,19.95
2018-07-19T03:54:15.218Z,19.92
2018-07-19T03:54:55.791Z,19.99
2018-07-19T03:55:36.360Z,19.99
2018-07-19T03:56:16.944Z,20
2018-07-19T03:56:57.509Z,20.03
2018-07-19T03:57:38.082Z,19.94
2018-07-19T03:58:18.650Z,19.95
2018-07-19T03:58:59.217Z,19.91
2018-07-19T03:59:39.782Z,19.94
2018-07-19T04:00:20.346Z,19.95
2018-07-19T04:01:00.920Z,19.95
2018-07-19T04:01:41.501Z,20.02
2018-07-19T04:02:22.072Z,19.91
2018-07-19T04:03:02.648Z,19.99
2018-07-19T04:03:43.218Z,19.91
2018-07-19T04:04:23.787Z,19.96
2018-07-19T04:05:04.365Z,19.91
2018-07-19T04:05:44.923Z,19.92
2018-07-19T04:06:25.491Z,20.02
2018-07-19T04:07:06.066Z,20.07
2018-07-19T04:07:46.632Z,20.04
2018-07-19T04:08:27.210Z,20.02
2018-07-19T04:09:07.786Z,20
2018-07-19T04:09:48.358Z,19.91
2018-07-19T04:10:28.940Z,19.92
2018-07-19T04:11:09.571Z,20.02
2018-07-19T04:11:50.097Z,20
2018-07-19T04:12:30.717Z,20.03
2018-07-19T04:13:11.289Z,19.94
2018-07-19T04:13:51.868Z,19.88
2018-07-19T04:14:32.437Z,19.85
2018-07-19T04:15:13.006Z,19.91
2018-07-19T04:15:53.566Z,19.88
2018-07-19T04:16:34.138Z,19.89
2018-07-19T04:17:14.734Z,19.92
2018-07-19T04:17:55.296Z,19.91
2018-07-19T04:18:35.916Z,19.89
2018-07-19T04:19:16.493Z,19.94
2018-07-19T04:19:57.063Z,19.95
2018-07-19T04:20:37.640Z,19.91
2018-07-19T04:21:18.208Z,19.96
2018-07-19T04:21:58.780Z,19.99
2018-07-19T04:22:39.369Z,20.06
2018-07-19T04:23:19.925Z,19.91
2018-07-19T04:24:00.495Z,19.88
2018-07-19T04:24:41.058Z,19.92
2018-07-19T04:25:21.625Z,20
2018-07-19T04:26:02.191Z,19.96
2018-07-19T04:26:42.770Z,19.86
2018-07-19T04:27:23.341Z,19.96
2018-07-19T04:28:03.908Z,19.96
2018-07-19T04:28:44.479Z,19.89
2018-07-19T04:29:25.073Z,19.92
2018-07-19T04:30:05.649Z,19.91
2018-07-19T04:30:46.223Z,19.89
2018-07-19T04:31:26.801Z,19.91
2018-07-19T04:32:07.370Z,19.89
2018-07-19T04:32:47.931Z,19.89
2018-07-19T04:33:28.501Z,19.99
2018-07-19T04:34:09.073Z,19.91
2018-07-19T04:34:49.637Z,19.88
2018-07-19T04:35:30.202Z,19.89
2018-07-19T04:36:10.765Z,19.89
2018-07-19T04:36:51.335Z,20.02
2018-07-19T04:37:31.903Z,19.92
2018-07-19T04:38:12.524Z,19.95
2018-07-19T04:38:53.044Z,19.85
2018-07-19T04:39:33.607Z,19.88
2018-07-19T04:40:14.162Z,19.95
2018-07-19T04:40:54.723Z,19.88
2018-07-19T04:41:35.420Z,19.89
2018-07-19T04:42:15.986Z,19.94
2018-07-19T04:42:56.591Z,19.86
2018-07-19T04:43:37.164Z,20.02
2018-07-19T04:44:17.735Z,20
2018-07-19T04:44:58.303Z,19.94
2018-07-19T04:45:38.871Z,19.86
2018-07-19T04:46:19.468Z,19.99
2018-07-19T04:47:00.041Z,19.86
2018-07-19T04:47:40.613Z,19.92
2018-07-19T04:48:21.269Z,19.99
2018-07-19T04:49:01.782Z,19.99
2018-07-19T04:49:42.351Z,19.89
2018-07-19T04:50:22.926Z,19.92
2018-07-19T04:51:03.505Z,19.94
2018-07-19T04:51:44.071Z,20.03
2018-07-19T04:52:24.644Z,19.99
2018-07-19T04:53:05.221Z,20
2018-07-19T04:53:45.785Z,19.96
2018-07-19T04:54:26.354Z,20
2018-07-19T04:55:06.935Z,19.94
2018-07-19T04:55:47.501Z,20.03
2018-07-19T04:56:28.074Z,20.06
2018-07-19T04:57:08.685Z,19.99
2018-07-19T04:57:49.259Z,19.92
2018-07-19T04:58:29.815Z,19.89
2018-07-19T04:59:10.421Z,19.91
2018-07-19T04:59:50.991Z,19.99
2018-07-19T05:00:31.551Z,19.89
2018-07-19T05:01:12.104Z,20
2018-07-19T05:01:52.744Z,19.94
2018-07-19T05:02:33.254Z,19.99
2018-07-19T05:03:13.859Z,19.94
2018-07-19T05:03:54.439Z,19.99
2018-07-19T05:04:35.011Z,19.96
2018-07-19T05:05:15.582Z,19.91
2018-07-19T05:05:56.152Z,19.96
2018-07-19T05:06:36.724Z,19.99
2018-07-19T05:07:17.292Z,19.91
2018-07-19T05:07:57.858Z,19.91
2018-07-19T05:08:38.408Z,19.91
2018-07-19T05:09:18.989Z,19.96
2018-07-19T05:09:59.581Z,20
2018-07-19T05:10:40.121Z,19.91
2018-07-19T05:11:20.686Z,19.95
2018-07-19T05:12:01.321Z,19.89
2018-07-19T05:12:41.906Z,19.96
2018-07-19T05:13:22.467Z,19.94
2018-07-19T05:14:03.086Z,20.03
2018-07-19T05:14:43.602Z,19.91
2018-07-19T05:15:24.161Z,20.11
2018-07-19T05:16:04.783Z,20.07
2018-07-19T05:16:45.311Z,20.06
2018-07-19T05:17:25.883Z,20.09
2018-07-19T05:18:06.454Z,20.06
2018-07-19T05:18:47.029Z,20.09
2018-07-19T05:19:27.602Z,20.13
2018-07-19T05:20:08.164Z,20.13
2018-07-19T05:20:48.733Z,20.14
2018-07-19T05:21:29.301Z,20.11
2018-07-19T05:22:09.878Z,20.1
2018-07-19T05:22:50.448Z,20.21
2018-07-19T05:23:31.014Z,20.18
2018-07-19T05:24:11.595Z,20.13
2018-07-19T05:24:52.171Z,20.16
2018-07-19T05:25:32.742Z,20.25
2018-07-19T05:26:13.314Z,20.26
2018-07-19T05:26:53.887Z,20.26
2018-07-19T05:27:34.461Z,20.24
2018-07-19T05:28:15.026Z,20.26
2018-07-19T05:28:55.592Z,20.19
2018-07-19T05:29:36.152Z,20.28
2018-07-19T05:30:16.727Z,20.37
2018-07-19T05:30:57.304Z,20.32
2018-07-19T05:31:37.875Z,20.29
2018-07-19T05:32:18.440Z,20.41
2018-07-19T05:32:59.014Z,20.26
2018-07-19T05:33:39.587Z,20.32
2018-07-19T05:34:20.154Z,20.41
2018-07-19T05:35:00.714Z,20.47
2018-07-19T05:35:41.271Z,20.43
2018-07-19T05:36:21.837Z,20.37
2018-07-19T05:37:02.406Z,20.5
2018-07-19T05:37:42.977Z,20.37
2018-07-19T05:38:23.547Z,20.47
2018-07-19T05:39:04.118Z,20.58
2018-07-19T05:39:44.680Z,20.6
2018-07-19T05:40:25.293Z,20.7
2018-07-19T05:41:05.805Z,20.75
2018-07-19T05:41:46.378Z,20.84
2018-07-19T05:42:26.996Z,20.81
2018-07-19T05:43:07.706Z,20.95
2018-07-19T05:43:48.527Z,21
2018-07-19T05:44:29.131Z,21.12
2018-07-19T05:45:09.733Z,21.07
2018-07-19T05:45:50.274Z,21.17
2018-07-19T05:46:30.837Z,21.36
2018-07-19T05:47:11.400Z,21.36
2018-07-19T05:47:52.093Z,21.5
2018-07-19T05:48:32.740Z,21.55
2018-07-19T05:49:13.316Z,21.55
2018-07-19T05:49:53.891Z,21.51
2018-07-19T05:50:34.477Z,21.58
2018-07-19T05:51:15.092Z,21.67
2018-07-19T05:51:55.650Z,21.72
2018-07-19T05:52:36.231Z,21.8
2018-07-19T05:53:16.805Z,21.89
2018-07-19T05:53:57.416Z,21.92
2018-07-19T05:54:38.134Z,21.91
2018-07-19T05:55:18.805Z,21.99
2018-07-19T05:55:59.529Z,22.06
2018-07-19T05:56:41.289Z,22.04
2018-07-19T05:57:22.019Z,22.15
2018-07-19T05:58:02.603Z,22.1
2018-07-19T05:58:43.326Z,22.25
2018-07-19T05:59:23.885Z,22.3
2018-07-19T06:00:04.486Z,22.3
2018-07-19T06:00:45.115Z,22.43
2018-07-19T06:01:25.774Z,22.43
2018-07-19T06:02:06.907Z,22.5
2018-07-19T06:02:47.903Z,22.51
2018-07-19T06:03:28.480Z,22.57
2018-07-19T06:04:09.061Z,22.62
2018-07-19T06:04:50.366Z,22.59
2018-07-19T06:05:31.017Z,22.78
2018-07-19T06:06:11.680Z,22.9
2018-07-19T06:06:52.329Z,22.98
2018-07-19T06:07:33.019Z,23.15
2018-07-19T06:08:13.676Z,23.15
2018-07-19T06:08:54.924Z,23.27
2018-07-19T06:09:35.518Z,23.39
2018-07-19T06:10:16.660Z,23.39
2018-07-19T06:10:58.135Z,23.46
2018-07-19T06:11:38.797Z,23.51
2018-07-19T06:12:19.380Z,23.54
2018-07-19T06:12:59.949Z,23.59
2018-07-19T06:13:40.509Z,23.58
2018-07-19T06:14:21.097Z,23.56
2018-07-19T06:15:01.673Z,23.61
2018-07-19T06:15:42.247Z,23.59
2018-07-19T06:16:22.823Z,23.59
2018-07-19T06:17:03.378Z,23.59
2018-07-19T06:17:43.959Z,23.63
2018-07-19T06:18:24.528Z,23.66
2018-07-19T06:19:05.099Z,23.69
2018-07-19T06:19:45.690Z,23.8
2018-07-19T06:20:26.263Z,23.95
2018-07-19T06:21:06.912Z,23.88
2018-07-19T06:21:47.495Z,23.88
2018-07-19T06:22:28.266Z,24.01
2018-07-19T06:23:08.835Z,24.08
2018-07-19T06:23:49.408Z,24.11
2018-07-19T06:24:29.987Z,24.08
2018-07-19T06:25:10.563Z,24.13
2018-07-19T06:25:51.141Z,24.11
2018-07-19T06:26:31.709Z,24.13
2018-07-19T06:27:12.265Z,24.16
2018-07-19T06:27:52.908Z,24.13
2018-07-19T06:28:33.483Z,24.13
2018-07-19T06:29:14.165Z,24.11
2018-07-19T06:29:54.801Z,24.18
2018-07-19T06:30:35.583Z,24.2
2018-07-19T06:31:16.668Z,24.21
2018-07-19T06:31:57.329Z,24.17
2018-07-19T06:32:38.749Z,24.2
2018-07-19T06:33:19.321Z,24.21
2018-07-19T06:33:59.896Z,24.3
2018-07-19T06:34:40.472Z,24.33
2018-07-19T06:35:21.033Z,24.3
2018-07-19T06:36:01.673Z,24.5
2018-07-19T06:36:42.248Z,24.48
2018-07-19T06:37:22.821Z,24.61
2018-07-19T06:38:03.396Z,24.66
2018-07-19T06:38:43.977Z,24.76
2018-07-19T06:39:24.560Z,24.86
2018-07-19T06:40:05.374Z,24.8
2018-07-19T06:40:45.933Z,24.81
2018-07-19T06:41:26.490Z,24.81
2018-07-19T06:42:07.059Z,24.92
2018-07-19T06:42:47.641Z,24.92
2018-07-19T06:43:28.225Z,24.84
2018-07-19T06:44:08.806Z,24.85
2018-07-19T06:44:49.392Z,25.03
2018-07-19T06:45:29.960Z,24.95
2018-07-19T06:46:10.545Z,24.99
2018-07-19T06:46:51.099Z,25.06
2018-07-19T06:47:31.677Z,24.96
2018-07-19T06:48:12.249Z,25.06
2018-07-19T06:48:52.877Z,25.06
2018-07-19T06:49:33.506Z,25.17
2018-07-19T06:50:14.155Z,25.1
2018-07-19T06:50:54.705Z,25.1
2018-07-19T06:51:35.341Z,24.99
2018-07-19T06:52:16.107Z,24.96
2018-07-19T06:52:56.720Z,24.85
2018-07-19T06:53:37.404Z,24.89
2018-07-19T06:54:17.980Z,24.7
2018-07-19T06:54:58.561Z,24.65
2018-07-19T06:55:39.142Z,24.53
2018-07-19T06:56:19.904Z,24.51
2018-07-19T06:57:00.599Z,24.45
2018-07-19T06:57:41.189Z,24.32
2018-07-19T06:58:21.753Z,24.26
2018-07-19T06:59:02.329Z,24.18
2018-07-19T06:59:42.910Z,24.16
2018-07-19T07:00:23.484Z,24.13
2018-07-19T07:01:04.074Z,23.98
2018-07-19T07:01:44.633Z,23.96
2018-07-19T07:02:25.197Z,23.96
2018-07-19T07:03:05.769Z,23.92
2018-07-19T07:03:46.359Z,23.88
2018-07-19T07:04:26.907Z,23.83
2018-07-19T07:05:07.486Z,23.76
2018-07-19T07:05:48.062Z,23.73
2018-07-19T07:06:28.640Z,23.69
2018-07-19T07:07:09.227Z,23.74
2018-07-19T07:07:49.796Z,23.62
2018-07-19T07:08:30.370Z,23.63
2018-07-19T07:09:10.942Z,23.55
2018-07-19T07:09:51.526Z,23.54
2018-07-19T07:10:32.087Z,23.55
2018-07-19T07:11:13.267Z,23.48
2018-07-19T07:11:53.972Z,23.44
2018-07-19T07:12:34.622Z,23.47
2018-07-19T07:13:15.198Z,23.37
2018-07-19T07:13:55.767Z,23.37
2018-07-19T07:14:36.344Z,23.37
2018-07-19T07:15:16.920Z,23.37
2018-07-19T07:15:57.496Z,23.2
2018-07-19T07:16:38.071Z,23.27
2018-07-19T07:17:18.649Z,23.21
2018-07-19T07:17:59.222Z,23.17
2018-07-19T07:18:39.787Z,23.12
2018-07-19T07:19:20.367Z,23.12
2018-07-19T07:20:00.940Z,23.06
2018-07-19T07:20:41.515Z,22.99
2018-07-19T07:21:22.102Z,23
2018-07-19T07:22:02.672Z,23
2018-07-19T07:22:43.246Z,22.98
2018-07-19T07:23:23.819Z,22.91
2018-07-19T07:24:04.393Z,22.88
2018-07-19T07:24:44.969Z,22.91
2018-07-19T07:25:25.541Z,22.9
2018-07-19T07:26:06.114Z,22.88
2018-07-19T07:26:46.703Z,22.9
2018-07-19T07:27:27.274Z,22.87
2018-07-19T07:28:07.852Z,22.83
2018-07-19T07:28:48.413Z,22.78
2018-07-19T07:29:28.980Z,22.84
2018-07-19T07:30:09.556Z,22.85
2018-07-19T07:30:50.131Z,22.83
2018-07-19T07:31:30.692Z,22.75
2018-07-19T07:32:11.268Z,22.83
2018-07-19T07:32:51.858Z,22.81
2018-07-19T07:33:32.583Z,22.73
2018-07-19T07:34:13.223Z,22.75
2018-07-19T07:34:56.100Z,22.83
2018-07-19T07:35:34.763Z,22.83
2018-07-19T07:36:15.493Z,22.85
2018-07-19T07:36:56.044Z,22.83
2018-07-19T07:37:36.622Z,22.91
2018-07-19T07:38:17.174Z,22.88
2018-07-19T07:38:57.795Z,22.85
2018-07-19T07:39:38.301Z,22.93
2018-07-19T07:40:18.851Z,22.84
2018-07-19T07:40:59.427Z,22.76
2018-07-19T07:41:39.975Z,22.78
2018-07-19T07:42:20.551Z,22.73
2018-07-19T07:43:41.702Z,22.78
2018-07-19T07:44:22.254Z,22.78
2018-07-19T07:45:02.838Z,22.8
2018-07-19T07:45:43.398Z,22.85
2018-07-19T07:46:23.972Z,22.84
2018-07-19T07:47:04.544Z,22.81
2018-07-19T07:47:45.126Z,22.75
2018-07-19T07:48:25.695Z,22.73
2018-07-19T07:49:06.274Z,22.68
2018-07-19T07:49:46.839Z,22.72
2018-07-19T07:50:27.420Z,22.72
2018-07-19T07:51:07.996Z,22.63
2018-07-19T07:51:48.561Z,22.7
2018-07-19T07:52:29.204Z,22.65
2018-07-19T07:53:09.780Z,22.66
2018-07-19T07:53:50.336Z,22.6
2018-07-19T07:54:30.902Z,22.6
2018-07-19T07:55:11.628Z,22.7
2018-07-19T07:55:52.196Z,22.65
2018-07-19T07:56:32.758Z,22.69
2018-07-19T07:57:13.337Z,22.66
2018-07-19T07:57:53.903Z,22.65
2018-07-19T07:58:34.476Z,22.7
2018-07-19T07:59:15.103Z,22.7
2018-07-19T07:59:55.621Z,22.65
2018-07-19T08:00:36.221Z,22.63
2018-07-19T08:01:16.773Z,22.66
2018-07-19T08:01:57.350Z,22.65
2018-07-19T08:02:37.918Z,22.62
2018-07-19T08:03:18.471Z,22.59
2018-07-19T08:03:59.040Z,22.59
2018-07-19T08:04:39.600Z,22.55
2018-07-19T08:05:20.172Z,22.51
2018-07-19T08:06:00.750Z,22.54
2018-07-19T08:06:41.326Z,22.51
2018-07-19T08:07:21.886Z,22.5
2018-07-19T08:08:02.460Z,22.54
2018-07-19T08:08:43.033Z,22.43
2018-07-19T08:09:23.595Z,22.47
2018-07-19T08:10:04.171Z,22.45
2018-07-19T08:10:44.775Z,22.41
2018-07-19T08:11:25.332Z,22.43
2018-07-19T08:12:05.902Z,22.38
2018-07-19T08:12:46.510Z,22.48
2018-07-19T08:13:27.084Z,22.36
2018-07-19T08:14:07.657Z,22.39
2018-07-19T08:14:48.219Z,22.39
2018-07-19T08:15:28.818Z,22.39
2018-07-19T08:16:09.395Z,22.26
2018-07-19T08:16:49.994Z,22.33
2018-07-19T08:17:30.577Z,22.33
2018-07-19T08:18:11.172Z,22.38
2018-07-19T08:18:51.733Z,22.36
2018-07-19T08:19:32.341Z,22.32
2018-07-19T08:20:12.911Z,22.39
2018-07-19T08:20:53.501Z,22.38
2018-07-19T08:21:34.132Z,22.38
2018-07-19T08:22:14.650Z,22.32
2018-07-19T08:22:55.219Z,22.28
2018-07-19T08:23:35.792Z,22.3
2018-07-19T08:24:16.421Z,22.33
2018-07-19T08:24:56.974Z,22.33
2018-07-19T08:25:37.547Z,22.35
2018-07-19T08:26:18.132Z,22.33
2018-07-19T08:26:58.700Z,22.3
2018-07-19T08:27:39.275Z,22.26
2018-07-19T08:28:19.851Z,22.29
2018-07-19T08:29:00.463Z,22.28
2018-07-19T08:29:40.990Z,22.35
2018-07-19T08:30:21.569Z,22.28
2018-07-19T08:31:02.139Z,22.28
2018-07-19T08:31:42.717Z,22.25
2018-07-19T08:32:23.339Z,22.25
2018-07-19T08:33:03.858Z,22.28
2018-07-19T08:33:44.426Z,22.22
2018-07-19T08:34:25.001Z,22.26
2018-07-19T08:35:05.572Z,22.25
2018-07-19T08:35:46.144Z,22.29
2018-07-19T08:36:26.720Z,22.15
2018-07-19T08:37:07.300Z,22.2
2018-07-19T08:37:47.879Z,22.2
2018-07-19T08:38:28.452Z,22.33
2018-07-19T08:39:09.026Z,22.29
2018-07-19T08:39:49.624Z,22.28
2018-07-19T08:40:30.161Z,22.25
2018-07-19T08:41:10.743Z,22.2
2018-07-19T08:41:51.340Z,22.22
2018-07-19T08:42:31.889Z,22.25
2018-07-19T08:43:12.466Z,22.3
2018-07-19T08:43:53.038Z,22.26
2018-07-19T08:44:33.606Z,22.32
2018-07-19T08:45:14.183Z,22.2
2018-07-19T08:45:54.756Z,22.29